sensor_id;sensor_type;location;lat;lon;timestamp;P1;durP1;ratioP1;P2;durP2;ratioP2
9436;SDS011;4757;59.334;18.034;2023-08-30T00:00:29;2.37;;;2.00;;
9436;SDS011;4757;59.334;18.034;2023-08-30T00:02:57;3.47;;;2.30;;
9436;SDS011;4757;59.334;18.034;2023-08-30T00:05:24;3.23;;;2.23;;
9436;SDS011;4757;59.334;18.034;2023-08-30T00:07:54;4.20;;;2.10;;
9436;SDS011;4757;59.334;18.034;2023-08-30T00:10:21;6.60;;;2.70;;
9436;SDS011;4757;59.334;18.034;2023-08-30T00:12:48;7.37;;;2.53;;
9436;SDS011;4757;59.334;18.034;2023-08-30T00:15:15;3.20;;;2.10;;
9436;SDS011;4757;59.334;18.034;2023-08-30T00:17:43;4.40;;;2.20;;
9436;SDS011;4757;59.334;18.034;2023-08-30T00:20:10;3.40;;;2.50;;
9436;SDS011;4757;59.334;18.034;2023-08-30T00:22:38;4.80;;;2.30;;
9436;SDS011;4757;59.334;18.034;2023-08-30T00:25:08;3.20;;;2.40;;
9436;SDS011;4757;59.334;18.034;2023-08-30T00:27:35;3.63;;;2.30;;
9436;SDS011;4757;59.334;18.034;2023-08-30T00:30:03;4.47;;;2.13;;
9436;SDS011;4757;59.334;18.034;2023-08-30T00:32:31;4.47;;;2.33;;
9436;SDS011;4757;59.334;18.034;2023-08-30T00:34:58;5.23;;;2.30;;
9436;SDS011;4757;59.334;18.034;2023-08-30T00:37:25;3.03;;;2.40;;
9436;SDS011;4757;59.334;18.034;2023-08-30T00:39:52;2.63;;;2.23;;
9436;SDS011;4757;59.334;18.034;2023-08-30T00:42:19;2.70;;;2.50;;
9436;SDS011;4757;59.334;18.034;2023-08-30T00:44:47;6.00;;;2.20;;
9436;SDS011;4757;59.334;18.034;2023-08-30T00:47:14;4.93;;;2.10;;
9436;SDS011;4757;59.334;18.034;2023-08-30T00:49:42;5.67;;;2.20;;
9436;SDS011;4757;59.334;18.034;2023-08-30T00:52:09;3.93;;;2.40;;
9436;SDS011;4757;59.334;18.034;2023-08-30T00:54:37;4.20;;;2.10;;
9436;SDS011;4757;59.334;18.034;2023-08-30T00:57:05;3.07;;;2.00;;
9436;SDS011;4757;59.334;18.034;2023-08-30T00:59:33;3.10;;;2.50;;
9436;SDS011;4757;59.334;18.034;2023-08-30T01:02:00;5.67;;;2.47;;
9436;SDS011;4757;59.334;18.034;2023-08-30T01:04:28;4.53;;;2.30;;
9436;SDS011;4757;59.334;18.034;2023-08-30T01:06:58;3.50;;;2.00;;
9436;SDS011;4757;59.334;18.034;2023-08-30T01:09:26;2.97;;;2.20;;
9436;SDS011;4757;59.334;18.034;2023-08-30T01:14:38;6.03;;;2.00;;
9436;SDS011;4757;59.334;18.034;2023-08-30T01:17:23;3.07;;;2.10;;
9436;SDS011;4757;59.334;18.034;2023-08-30T01:25:43;3.57;;;2.10;;
9436;SDS011;4757;59.334;18.034;2023-08-30T01:28:19;3.47;;;2.20;;
9436;SDS011;4757;59.334;18.034;2023-08-30T01:30:50;4.60;;;2.10;;
9436;SDS011;4757;59.334;18.034;2023-08-30T01:33:24;3.60;;;2.03;;
9436;SDS011;4757;59.334;18.034;2023-08-30T01:35:54;5.43;;;1.90;;
9436;SDS011;4757;59.334;18.034;2023-08-30T01:38:22;5.27;;;2.23;;
9436;SDS011;4757;59.334;18.034;2023-08-30T01:40:51;3.80;;;2.30;;
9436;SDS011;4757;59.334;18.034;2023-08-30T01:43:20;4.20;;;2.40;;
9436;SDS011;4757;59.334;18.034;2023-08-30T01:45:48;3.63;;;2.47;;
9436;SDS011;4757;59.334;18.034;2023-08-30T01:48:15;2.40;;;2.20;;
9436;SDS011;4757;59.334;18.034;2023-08-30T01:50:44;3.80;;;2.43;;
9436;SDS011;4757;59.334;18.034;2023-08-30T01:53:12;3.90;;;2.43;;
9436;SDS011;4757;59.334;18.034;2023-08-30T01:55:40;3.90;;;2.50;;
9436;SDS011;4757;59.334;18.034;2023-08-30T01:58:08;5.57;;;2.40;;
9436;SDS011;4757;59.334;18.034;2023-08-30T02:00:36;3.27;;;2.90;;
9436;SDS011;4757;59.334;18.034;2023-08-30T02:03:13;6.13;;;3.43;;
9436;SDS011;4757;59.334;18.034;2023-08-30T02:08:36;8.80;;;4.63;;
9436;SDS011;4757;59.334;18.034;2023-08-30T02:11:11;5.13;;;3.97;;
9436;SDS011;4757;59.334;18.034;2023-08-30T02:13:43;4.70;;;4.10;;
9436;SDS011;4757;59.334;18.034;2023-08-30T02:16:12;4.90;;;3.70;;
9436;SDS011;4757;59.334;18.034;2023-08-30T02:18:41;5.97;;;3.77;;
9436;SDS011;4757;59.334;18.034;2023-08-30T02:21:08;5.07;;;3.97;;
9436;SDS011;4757;59.334;18.034;2023-08-30T02:23:36;4.13;;;3.73;;
9436;SDS011;4757;59.334;18.034;2023-08-30T02:26:03;6.10;;;4.50;;
9436;SDS011;4757;59.334;18.034;2023-08-30T02:28:31;3.80;;;3.40;;
9436;SDS011;4757;59.334;18.034;2023-08-30T02:30:59;4.67;;;3.70;;
9436;SDS011;4757;59.334;18.034;2023-08-30T02:33:26;3.97;;;3.57;;
9436;SDS011;4757;59.334;18.034;2023-08-30T02:35:53;5.17;;;4.47;;
9436;SDS011;4757;59.334;18.034;2023-08-30T02:38:20;7.73;;;4.30;;
9436;SDS011;4757;59.334;18.034;2023-08-30T02:40:47;6.90;;;4.30;;
9436;SDS011;4757;59.334;18.034;2023-08-30T02:43:14;5.40;;;3.77;;
9436;SDS011;4757;59.334;18.034;2023-08-30T02:45:42;4.97;;;4.23;;
9436;SDS011;4757;59.334;18.034;2023-08-30T02:48:09;5.97;;;3.83;;
9436;SDS011;4757;59.334;18.034;2023-08-30T02:50:36;3.90;;;3.50;;
9436;SDS011;4757;59.334;18.034;2023-08-30T02:53:04;6.17;;;3.63;;
9436;SDS011;4757;59.334;18.034;2023-08-30T02:55:31;4.13;;;3.73;;
9436;SDS011;4757;59.334;18.034;2023-08-30T02:57:58;7.60;;;4.10;;
9436;SDS011;4757;59.334;18.034;2023-08-30T03:00:25;5.70;;;3.30;;
9436;SDS011;4757;59.334;18.034;2023-08-30T03:02:53;5.50;;;3.70;;
9436;SDS011;4757;59.334;18.034;2023-08-30T03:05:20;5.23;;;3.37;;
9436;SDS011;4757;59.334;18.034;2023-08-30T03:07:47;5.53;;;3.13;;
9436;SDS011;4757;59.334;18.034;2023-08-30T03:10:14;5.43;;;3.20;;
9436;SDS011;4757;59.334;18.034;2023-08-30T03:12:41;5.20;;;3.60;;
9436;SDS011;4757;59.334;18.034;2023-08-30T03:15:09;5.57;;;4.03;;
9436;SDS011;4757;59.334;18.034;2023-08-30T03:17:37;3.93;;;3.20;;
9436;SDS011;4757;59.334;18.034;2023-08-30T03:20:05;4.63;;;3.03;;
9436;SDS011;4757;59.334;18.034;2023-08-30T03:22:33;6.20;;;3.47;;
9436;SDS011;4757;59.334;18.034;2023-08-30T03:25:00;5.37;;;3.00;;
9436;SDS011;4757;59.334;18.034;2023-08-30T03:27:29;4.07;;;2.70;;
9436;SDS011;4757;59.334;18.034;2023-08-30T03:29:57;5.60;;;3.20;;
9436;SDS011;4757;59.334;18.034;2023-08-30T03:32:24;5.27;;;3.10;;
9436;SDS011;4757;59.334;18.034;2023-08-30T03:34:51;4.73;;;3.00;;
9436;SDS011;4757;59.334;18.034;2023-08-30T03:37:19;3.83;;;2.60;;
9436;SDS011;4757;59.334;18.034;2023-08-30T03:39:46;6.07;;;3.20;;
9436;SDS011;4757;59.334;18.034;2023-08-30T03:42:13;3.70;;;3.23;;
9436;SDS011;4757;59.334;18.034;2023-08-30T03:44:40;4.83;;;3.30;;
9436;SDS011;4757;59.334;18.034;2023-08-30T03:47:07;7.93;;;3.23;;
9436;SDS011;4757;59.334;18.034;2023-08-30T03:49:35;4.27;;;3.10;;
9436;SDS011;4757;59.334;18.034;2023-08-30T03:52:02;2.67;;;2.43;;
9436;SDS011;4757;59.334;18.034;2023-08-30T03:54:29;6.57;;;3.40;;
9436;SDS011;4757;59.334;18.034;2023-08-30T03:56:56;5.33;;;3.00;;
9436;SDS011;4757;59.334;18.034;2023-08-30T03:59:23;3.43;;;2.50;;
9436;SDS011;4757;59.334;18.034;2023-08-30T04:01:53;4.83;;;2.90;;
9436;SDS011;4757;59.334;18.034;2023-08-30T04:04:21;5.93;;;3.73;;
9436;SDS011;4757;59.334;18.034;2023-08-30T04:06:48;4.33;;;3.33;;
9436;SDS011;4757;59.334;18.034;2023-08-30T04:09:15;4.77;;;3.10;;
9436;SDS011;4757;59.334;18.034;2023-08-30T04:11:43;3.60;;;2.93;;
9436;SDS011;4757;59.334;18.034;2023-08-30T04:14:11;3.40;;;3.07;;
9436;SDS011;4757;59.334;18.034;2023-08-30T04:16:38;5.30;;;4.03;;
9436;SDS011;4757;59.334;18.034;2023-08-30T04:19:05;5.90;;;3.47;;
9436;SDS011;4757;59.334;18.034;2023-08-30T04:21:32;8.93;;;8.07;;
9436;SDS011;4757;59.334;18.034;2023-08-30T04:23:59;6.87;;;3.33;;
9436;SDS011;4757;59.334;18.034;2023-08-30T04:26:27;4.27;;;3.23;;
9436;SDS011;4757;59.334;18.034;2023-08-30T04:28:55;5.13;;;3.30;;
9436;SDS011;4757;59.334;18.034;2023-08-30T04:31:23;4.27;;;2.80;;
9436;SDS011;4757;59.334;18.034;2023-08-30T04:33:50;4.97;;;2.93;;
9436;SDS011;4757;59.334;18.034;2023-08-30T04:36:19;4.17;;;2.70;;
9436;SDS011;4757;59.334;18.034;2023-08-30T04:38:46;5.43;;;3.20;;
9436;SDS011;4757;59.334;18.034;2023-08-30T04:41:27;7.40;;;3.50;;
9436;SDS011;4757;59.334;18.034;2023-08-30T04:43:56;5.77;;;3.13;;
9436;SDS011;4757;59.334;18.034;2023-08-30T04:46:23;4.10;;;2.97;;
9436;SDS011;4757;59.334;18.034;2023-08-30T04:48:50;6.93;;;3.70;;
9436;SDS011;4757;59.334;18.034;2023-08-30T04:51:17;4.90;;;3.67;;
9436;SDS011;4757;59.334;18.034;2023-08-30T04:53:44;3.30;;;2.97;;
9436;SDS011;4757;59.334;18.034;2023-08-30T04:56:12;7.73;;;3.57;;
9436;SDS011;4757;59.334;18.034;2023-08-30T04:58:39;6.27;;;3.40;;
9436;SDS011;4757;59.334;18.034;2023-08-30T05:01:07;3.63;;;3.00;;
9436;SDS011;4757;59.334;18.034;2023-08-30T05:03:35;3.60;;;3.30;;
9436;SDS011;4757;59.334;18.034;2023-08-30T05:06:02;4.83;;;3.23;;
9436;SDS011;4757;59.334;18.034;2023-08-30T05:08:30;3.77;;;3.30;;
9436;SDS011;4757;59.334;18.034;2023-08-30T05:10:57;5.93;;;3.43;;
9436;SDS011;4757;59.334;18.034;2023-08-30T05:13:24;6.20;;;3.57;;
9436;SDS011;4757;59.334;18.034;2023-08-30T05:15:51;3.93;;;3.37;;
9436;SDS011;4757;59.334;18.034;2023-08-30T05:18:19;4.77;;;3.40;;
9436;SDS011;4757;59.334;18.034;2023-08-30T05:20:46;5.23;;;3.43;;
9436;SDS011;4757;59.334;18.034;2023-08-30T05:23:13;5.60;;;3.00;;
9436;SDS011;4757;59.334;18.034;2023-08-30T05:25:40;4.73;;;3.07;;
9436;SDS011;4757;59.334;18.034;2023-08-30T05:28:07;5.40;;;3.40;;
9436;SDS011;4757;59.334;18.034;2023-08-30T05:30:36;5.63;;;3.20;;
9436;SDS011;4757;59.334;18.034;2023-08-30T05:33:04;4.87;;;3.07;;
9436;SDS011;4757;59.334;18.034;2023-08-30T05:35:31;5.53;;;3.20;;
9436;SDS011;4757;59.334;18.034;2023-08-30T05:37:58;4.27;;;3.80;;
9436;SDS011;4757;59.334;18.034;2023-08-30T05:40:26;6.50;;;3.27;;
9436;SDS011;4757;59.334;18.034;2023-08-30T05:42:53;4.27;;;3.80;;
9436;SDS011;4757;59.334;18.034;2023-08-30T05:45:21;4.37;;;3.73;;
9436;SDS011;4757;59.334;18.034;2023-08-30T05:47:48;4.17;;;3.40;;
9436;SDS011;4757;59.334;18.034;2023-08-30T05:50:16;5.07;;;3.57;;
9436;SDS011;4757;59.334;18.034;2023-08-30T05:52:43;4.87;;;3.53;;
9436;SDS011;4757;59.334;18.034;2023-08-30T05:55:11;4.13;;;3.47;;
9436;SDS011;4757;59.334;18.034;2023-08-30T05:57:39;5.33;;;3.20;;
9436;SDS011;4757;59.334;18.034;2023-08-30T06:00:07;5.10;;;3.40;;
9436;SDS011;4757;59.334;18.034;2023-08-30T06:02:35;4.23;;;3.40;;
9436;SDS011;4757;59.334;18.034;2023-08-30T06:05:02;4.13;;;3.67;;
9436;SDS011;4757;59.334;18.034;2023-08-30T06:07:30;4.93;;;3.53;;
9436;SDS011;4757;59.334;18.034;2023-08-30T06:09:57;3.53;;;3.23;;
9436;SDS011;4757;59.334;18.034;2023-08-30T06:12:25;5.97;;;3.50;;
9436;SDS011;4757;59.334;18.034;2023-08-30T06:14:52;6.03;;;4.33;;
9436;SDS011;4757;59.334;18.034;2023-08-30T06:17:20;4.33;;;3.50;;
9436;SDS011;4757;59.334;18.034;2023-08-30T06:19:48;3.83;;;3.43;;
9436;SDS011;4757;59.334;18.034;2023-08-30T06:22:16;4.67;;;3.53;;
9436;SDS011;4757;59.334;18.034;2023-08-30T06:24:44;3.63;;;3.10;;
9436;SDS011;4757;59.334;18.034;2023-08-30T06:27:14;4.63;;;3.00;;
9436;SDS011;4757;59.334;18.034;2023-08-30T06:29:43;3.87;;;3.03;;
9436;SDS011;4757;59.334;18.034;2023-08-30T06:32:15;4.53;;;4.03;;
9436;SDS011;4757;59.334;18.034;2023-08-30T06:34:43;4.23;;;3.03;;
9436;SDS011;4757;59.334;18.034;2023-08-30T06:37:10;3.50;;;2.77;;
9436;SDS011;4757;59.334;18.034;2023-08-30T06:39:39;3.53;;;2.97;;
9436;SDS011;4757;59.334;18.034;2023-08-30T06:42:27;4.27;;;3.27;;
9436;SDS011;4757;59.334;18.034;2023-08-30T06:44:54;5.13;;;3.17;;
9436;SDS011;4757;59.334;18.034;2023-08-30T06:47:25;3.97;;;2.80;;
9436;SDS011;4757;59.334;18.034;2023-08-30T06:49:52;5.70;;;3.10;;
9436;SDS011;4757;59.334;18.034;2023-08-30T06:52:20;3.93;;;2.70;;
9436;SDS011;4757;59.334;18.034;2023-08-30T06:54:47;3.40;;;3.10;;
9436;SDS011;4757;59.334;18.034;2023-08-30T06:57:16;3.53;;;3.17;;
9436;SDS011;4757;59.334;18.034;2023-08-30T06:59:45;4.27;;;3.63;;
9436;SDS011;4757;59.334;18.034;2023-08-30T07:02:13;3.40;;;3.10;;
9436;SDS011;4757;59.334;18.034;2023-08-30T07:04:40;4.30;;;2.97;;
9436;SDS011;4757;59.334;18.034;2023-08-30T07:07:08;3.37;;;2.90;;
9436;SDS011;4757;59.334;18.034;2023-08-30T07:09:37;2.93;;;2.40;;
9436;SDS011;4757;59.334;18.034;2023-08-30T07:12:04;3.07;;;2.80;;
9436;SDS011;4757;59.334;18.034;2023-08-30T07:14:31;3.00;;;2.73;;
9436;SDS011;4757;59.334;18.034;2023-08-30T07:16:59;4.70;;;3.13;;
9436;SDS011;4757;59.334;18.034;2023-08-30T07:19:26;2.87;;;2.53;;
9436;SDS011;4757;59.334;18.034;2023-08-30T07:21:53;4.83;;;2.90;;
9436;SDS011;4757;59.334;18.034;2023-08-30T07:24:20;3.60;;;2.50;;
9436;SDS011;4757;59.334;18.034;2023-08-30T07:26:49;4.97;;;2.90;;
9436;SDS011;4757;59.334;18.034;2023-08-30T07:29:16;2.77;;;2.57;;
9436;SDS011;4757;59.334;18.034;2023-08-30T07:31:44;4.10;;;2.20;;
9436;SDS011;4757;59.334;18.034;2023-08-30T07:34:11;2.63;;;2.40;;
9436;SDS011;4757;59.334;18.034;2023-08-30T07:36:39;3.07;;;2.60;;
9436;SDS011;4757;59.334;18.034;2023-08-30T07:39:13;5.97;;;2.93;;
9436;SDS011;4757;59.334;18.034;2023-08-30T07:41:40;4.57;;;2.73;;
9436;SDS011;4757;59.334;18.034;2023-08-30T07:44:07;3.43;;;2.67;;
9436;SDS011;4757;59.334;18.034;2023-08-30T07:46:35;4.40;;;2.33;;
9436;SDS011;4757;59.334;18.034;2023-08-30T07:49:02;4.77;;;2.70;;
9436;SDS011;4757;59.334;18.034;2023-08-30T07:51:29;2.77;;;2.50;;
9436;SDS011;4757;59.334;18.034;2023-08-30T07:53:57;4.83;;;4.30;;
9436;SDS011;4757;59.334;18.034;2023-08-30T07:56:24;2.97;;;2.57;;
9436;SDS011;4757;59.334;18.034;2023-08-30T07:58:52;2.97;;;2.70;;
9436;SDS011;4757;59.334;18.034;2023-08-30T08:01:20;4.47;;;2.70;;
9436;SDS011;4757;59.334;18.034;2023-08-30T08:03:47;4.70;;;2.70;;
9436;SDS011;4757;59.334;18.034;2023-08-30T08:06:31;2.43;;;2.13;;
9436;SDS011;4757;59.334;18.034;2023-08-30T08:09:00;3.77;;;2.40;;
9436;SDS011;4757;59.334;18.034;2023-08-30T08:11:28;3.57;;;2.60;;
9436;SDS011;4757;59.334;18.034;2023-08-30T08:13:58;3.33;;;2.97;;
9436;SDS011;4757;59.334;18.034;2023-08-30T08:16:25;3.33;;;2.37;;
9436;SDS011;4757;59.334;18.034;2023-08-30T08:18:56;6.60;;;2.80;;
9436;SDS011;4757;59.334;18.034;2023-08-30T08:21:25;2.57;;;2.00;;
9436;SDS011;4757;59.334;18.034;2023-08-30T08:23:53;3.50;;;2.20;;
9436;SDS011;4757;59.334;18.034;2023-08-30T08:26:20;3.47;;;2.30;;
9436;SDS011;4757;59.334;18.034;2023-08-30T08:28:48;2.33;;;2.07;;
9436;SDS011;4757;59.334;18.034;2023-08-30T08:31:17;3.33;;;2.57;;
9436;SDS011;4757;59.334;18.034;2023-08-30T08:33:44;4.80;;;2.60;;
9436;SDS011;4757;59.334;18.034;2023-08-30T08:36:11;3.10;;;2.40;;
9436;SDS011;4757;59.334;18.034;2023-08-30T08:38:39;2.93;;;2.43;;
9436;SDS011;4757;59.334;18.034;2023-08-30T08:41:06;4.03;;;2.00;;
9436;SDS011;4757;59.334;18.034;2023-08-30T08:43:38;2.80;;;2.30;;
9436;SDS011;4757;59.334;18.034;2023-08-30T08:46:09;4.53;;;2.03;;
9436;SDS011;4757;59.334;18.034;2023-08-30T08:48:39;2.27;;;1.97;;
9436;SDS011;4757;59.334;18.034;2023-08-30T08:51:08;2.70;;;2.50;;
9436;SDS011;4757;59.334;18.034;2023-08-30T08:53:37;4.70;;;2.50;;
9436;SDS011;4757;59.334;18.034;2023-08-30T08:56:05;2.23;;;2.03;;
9436;SDS011;4757;59.334;18.034;2023-08-30T08:58:35;2.87;;;2.20;;
9436;SDS011;4757;59.334;18.034;2023-08-30T09:01:05;3.13;;;1.83;;
9436;SDS011;4757;59.334;18.034;2023-08-30T09:03:43;2.33;;;1.93;;
9436;SDS011;4757;59.334;18.034;2023-08-30T09:06:11;2.40;;;2.00;;
9436;SDS011;4757;59.334;18.034;2023-08-30T09:08:41;3.60;;;1.77;;
9436;SDS011;4757;59.334;18.034;2023-08-30T09:11:09;3.50;;;2.33;;
9436;SDS011;4757;59.334;18.034;2023-08-30T09:13:36;4.20;;;1.90;;
9436;SDS011;4757;59.334;18.034;2023-08-30T09:16:11;4.23;;;1.80;;
9436;SDS011;4757;59.334;18.034;2023-08-30T09:18:41;4.17;;;2.97;;
9436;SDS011;4757;59.334;18.034;2023-08-30T09:21:21;4.83;;;2.80;;
9436;SDS011;4757;59.334;18.034;2023-08-30T09:23:56;5.30;;;2.83;;
9436;SDS011;4757;59.334;18.034;2023-08-30T09:26:30;3.50;;;2.40;;
9436;SDS011;4757;59.334;18.034;2023-08-30T09:29:02;3.00;;;2.23;;
9436;SDS011;4757;59.334;18.034;2023-08-30T09:31:35;2.53;;;2.20;;
9436;SDS011;4757;59.334;18.034;2023-08-30T09:34:06;2.10;;;1.90;;
9436;SDS011;4757;59.334;18.034;2023-08-30T09:36:42;6.00;;;2.27;;
9436;SDS011;4757;59.334;18.034;2023-08-30T09:39:10;3.03;;;1.90;;
9436;SDS011;4757;59.334;18.034;2023-08-30T09:41:42;2.70;;;2.50;;
9436;SDS011;4757;59.334;18.034;2023-08-30T09:44:19;2.30;;;2.00;;
9436;SDS011;4757;59.334;18.034;2023-08-30T09:46:50;2.50;;;2.30;;
9436;SDS011;4757;59.334;18.034;2023-08-30T09:49:23;3.17;;;2.27;;
9436;SDS011;4757;59.334;18.034;2023-08-30T09:51:55;5.20;;;2.10;;
9436;SDS011;4757;59.334;18.034;2023-08-30T09:54:24;2.23;;;2.03;;
9436;SDS011;4757;59.334;18.034;2023-08-30T09:56:54;2.20;;;2.00;;
9436;SDS011;4757;59.334;18.034;2023-08-30T09:59:25;3.43;;;2.33;;
9436;SDS011;4757;59.334;18.034;2023-08-30T10:01:53;2.40;;;2.20;;
9436;SDS011;4757;59.334;18.034;2023-08-30T10:04:22;4.63;;;1.93;;
9436;SDS011;4757;59.334;18.034;2023-08-30T10:06:51;3.07;;;1.70;;
9436;SDS011;4757;59.334;18.034;2023-08-30T10:09:19;1.77;;;1.67;;
9436;SDS011;4757;59.334;18.034;2023-08-30T10:11:47;2.23;;;1.67;;
9436;SDS011;4757;59.334;18.034;2023-08-30T10:14:16;3.07;;;2.40;;
9436;SDS011;4757;59.334;18.034;2023-08-30T10:16:48;1.97;;;1.77;;
9436;SDS011;4757;59.334;18.034;2023-08-30T10:19:16;2.37;;;2.17;;
9436;SDS011;4757;59.334;18.034;2023-08-30T10:21:54;6.83;;;2.83;;
9436;SDS011;4757;59.334;18.034;2023-08-30T10:24:24;5.07;;;2.60;;
9436;SDS011;4757;59.334;18.034;2023-08-30T10:27:03;4.00;;;2.63;;
9436;SDS011;4757;59.334;18.034;2023-08-30T10:29:33;3.30;;;2.30;;
9436;SDS011;4757;59.334;18.034;2023-08-30T10:32:05;7.70;;;2.60;;
9436;SDS011;4757;59.334;18.034;2023-08-30T10:34:33;2.87;;;2.20;;
9436;SDS011;4757;59.334;18.034;2023-08-30T10:37:02;1.90;;;1.80;;
9436;SDS011;4757;59.334;18.034;2023-08-30T10:39:34;2.40;;;2.03;;
9436;SDS011;4757;59.334;18.034;2023-08-30T10:42:12;2.20;;;2.00;;
9436;SDS011;4757;59.334;18.034;2023-08-30T10:44:56;2.40;;;2.20;;
9436;SDS011;4757;59.334;18.034;2023-08-30T10:47:38;5.00;;;2.57;;
9436;SDS011;4757;59.334;18.034;2023-08-30T10:52:35;1.67;;;1.40;;
9436;SDS011;4757;59.334;18.034;2023-08-30T10:55:05;3.57;;;2.23;;
9436;SDS011;4757;59.334;18.034;2023-08-30T10:57:41;2.47;;;2.10;;
9436;SDS011;4757;59.334;18.034;2023-08-30T11:02:45;1.97;;;1.60;;
9436;SDS011;4757;59.334;18.034;2023-08-30T11:05:15;3.70;;;1.67;;
9436;SDS011;4757;59.334;18.034;2023-08-30T11:07:46;1.57;;;1.47;;
9436;SDS011;4757;59.334;18.034;2023-08-30T11:10:15;2.90;;;1.70;;
9436;SDS011;4757;59.334;18.034;2023-08-30T11:12:44;2.43;;;1.93;;
9436;SDS011;4757;59.334;18.034;2023-08-30T11:15:12;9.23;;;1.87;;
9436;SDS011;4757;59.334;18.034;2023-08-30T11:17:42;3.87;;;1.87;;
9436;SDS011;4757;59.334;18.034;2023-08-30T11:20:10;3.13;;;1.73;;
9436;SDS011;4757;59.334;18.034;2023-08-30T11:22:49;1.83;;;1.50;;
9436;SDS011;4757;59.334;18.034;2023-08-30T11:25:16;2.13;;;1.60;;
9436;SDS011;4757;59.334;18.034;2023-08-30T11:27:44;2.17;;;1.50;;
9436;SDS011;4757;59.334;18.034;2023-08-30T11:30:13;1.93;;;1.80;;
9436;SDS011;4757;59.334;18.034;2023-08-30T11:32:41;5.17;;;1.97;;
9436;SDS011;4757;59.334;18.034;2023-08-30T11:35:12;4.67;;;1.97;;
9436;SDS011;4757;59.334;18.034;2023-08-30T11:37:39;3.70;;;1.70;;
9436;SDS011;4757;59.334;18.034;2023-08-30T11:40:08;2.07;;;1.87;;
9436;SDS011;4757;59.334;18.034;2023-08-30T11:42:37;2.40;;;1.60;;
9436;SDS011;4757;59.334;18.034;2023-08-30T11:45:05;3.50;;;1.73;;
9436;SDS011;4757;59.334;18.034;2023-08-30T11:47:35;1.83;;;1.63;;
9436;SDS011;4757;59.334;18.034;2023-08-30T11:50:02;2.77;;;2.10;;
9436;SDS011;4757;59.334;18.034;2023-08-30T11:52:30;4.03;;;1.57;;
9436;SDS011;4757;59.334;18.034;2023-08-30T11:54:57;3.23;;;1.87;;
9436;SDS011;4757;59.334;18.034;2023-08-30T11:57:25;2.53;;;2.03;;
9436;SDS011;4757;59.334;18.034;2023-08-30T12:00:08;2.20;;;1.63;;
9436;SDS011;4757;59.334;18.034;2023-08-30T12:02:43;1.77;;;1.67;;
9436;SDS011;4757;59.334;18.034;2023-08-30T12:05:15;3.80;;;1.80;;
9436;SDS011;4757;59.334;18.034;2023-08-30T12:07:42;6.70;;;1.90;;
9436;SDS011;4757;59.334;18.034;2023-08-30T12:10:11;1.97;;;1.77;;
9436;SDS011;4757;59.334;18.034;2023-08-30T12:12:45;3.47;;;1.87;;
9436;SDS011;4757;59.334;18.034;2023-08-30T12:15:13;8.00;;;2.50;;
9436;SDS011;4757;59.334;18.034;2023-08-30T12:17:43;3.00;;;2.60;;
9436;SDS011;4757;59.334;18.034;2023-08-30T12:20:17;3.13;;;2.20;;
9436;SDS011;4757;59.334;18.034;2023-08-30T12:22:47;2.37;;;1.70;;
9436;SDS011;4757;59.334;18.034;2023-08-30T12:25:17;2.37;;;1.70;;
9436;SDS011;4757;59.334;18.034;2023-08-30T12:27:50;4.07;;;1.80;;
9436;SDS011;4757;59.334;18.034;2023-08-30T12:30:17;2.10;;;1.83;;
9436;SDS011;4757;59.334;18.034;2023-08-30T12:32:45;1.70;;;1.60;;
9436;SDS011;4757;59.334;18.034;2023-08-30T12:35:13;1.60;;;1.50;;
9436;SDS011;4757;59.334;18.034;2023-08-30T12:37:46;2.67;;;2.00;;
9436;SDS011;4757;59.334;18.034;2023-08-30T12:40:13;3.87;;;2.30;;
9436;SDS011;4757;59.334;18.034;2023-08-30T12:42:41;2.70;;;1.60;;
9436;SDS011;4757;59.334;18.034;2023-08-30T12:45:14;2.07;;;1.80;;
9436;SDS011;4757;59.334;18.034;2023-08-30T12:47:52;3.50;;;3.20;;
9436;SDS011;4757;59.334;18.034;2023-08-30T12:50:25;4.80;;;2.07;;
9436;SDS011;4757;59.334;18.034;2023-08-30T12:52:59;4.40;;;1.93;;
9436;SDS011;4757;59.334;18.034;2023-08-30T12:55:26;1.67;;;1.57;;
9436;SDS011;4757;59.334;18.034;2023-08-30T12:57:55;1.87;;;1.50;;
9436;SDS011;4757;59.334;18.034;2023-08-30T13:00:24;2.33;;;1.60;;
9436;SDS011;4757;59.334;18.034;2023-08-30T13:02:52;1.70;;;1.60;;
9436;SDS011;4757;59.334;18.034;2023-08-30T13:05:22;2.37;;;1.73;;
9436;SDS011;4757;59.334;18.034;2023-08-30T13:07:53;3.10;;;1.73;;
9436;SDS011;4757;59.334;18.034;2023-08-30T13:10:21;3.87;;;1.50;;
9436;SDS011;4757;59.334;18.034;2023-08-30T13:12:48;4.10;;;1.60;;
9436;SDS011;4757;59.334;18.034;2023-08-30T13:15:16;4.63;;;2.00;;
9436;SDS011;4757;59.334;18.034;2023-08-30T13:17:43;3.07;;;2.77;;
9436;SDS011;4757;59.334;18.034;2023-08-30T13:20:11;5.30;;;1.87;;
9436;SDS011;4757;59.334;18.034;2023-08-30T13:22:38;2.23;;;1.67;;
9436;SDS011;4757;59.334;18.034;2023-08-30T13:25:06;2.63;;;1.50;;
9436;SDS011;4757;59.334;18.034;2023-08-30T13:27:36;1.63;;;1.53;;
9436;SDS011;4757;59.334;18.034;2023-08-30T13:30:04;2.00;;;1.63;;
9436;SDS011;4757;59.334;18.034;2023-08-30T13:32:32;3.53;;;1.90;;
9436;SDS011;4757;59.334;18.034;2023-08-30T13:35:00;3.20;;;1.60;;
9436;SDS011;4757;59.334;18.034;2023-08-30T13:37:27;3.83;;;1.70;;
9436;SDS011;4757;59.334;18.034;2023-08-30T13:39:54;1.50;;;1.40;;
9436;SDS011;4757;59.334;18.034;2023-08-30T13:42:21;2.90;;;1.57;;
9436;SDS011;4757;59.334;18.034;2023-08-30T13:44:51;2.00;;;1.57;;
9436;SDS011;4757;59.334;18.034;2023-08-30T13:47:19;2.50;;;1.70;;
9436;SDS011;4757;59.334;18.034;2023-08-30T13:49:47;1.97;;;1.63;;
9436;SDS011;4757;59.334;18.034;2023-08-30T13:52:14;1.70;;;1.53;;
9436;SDS011;4757;59.334;18.034;2023-08-30T13:54:42;2.40;;;1.27;;
9436;SDS011;4757;59.334;18.034;2023-08-30T13:57:10;2.50;;;1.40;;
9436;SDS011;4757;59.334;18.034;2023-08-30T13:59:37;1.83;;;1.40;;
9436;SDS011;4757;59.334;18.034;2023-08-30T14:02:04;1.77;;;1.40;;
9436;SDS011;4757;59.334;18.034;2023-08-30T14:04:33;3.50;;;2.30;;
9436;SDS011;4757;59.334;18.034;2023-08-30T14:07:03;1.53;;;1.40;;
9436;SDS011;4757;59.334;18.034;2023-08-30T14:09:30;1.97;;;1.40;;
9436;SDS011;4757;59.334;18.034;2023-08-30T14:11:57;3.57;;;1.80;;
9436;SDS011;4757;59.334;18.034;2023-08-30T14:18:25;3.37;;;1.53;;
9436;SDS011;4757;59.334;18.034;2023-08-30T14:21:14;6.20;;;1.50;;
9436;SDS011;4757;59.334;18.034;2023-08-30T14:23:58;1.60;;;1.50;;
9436;SDS011;4757;59.334;18.034;2023-08-30T14:26:39;1.43;;;1.33;;
9436;SDS011;4757;59.334;18.034;2023-08-30T14:29:11;3.93;;;1.90;;
9436;SDS011;4757;59.334;18.034;2023-08-30T14:31:42;2.10;;;1.90;;
9436;SDS011;4757;59.334;18.034;2023-08-30T14:34:23;4.40;;;1.80;;
9436;SDS011;4757;59.334;18.034;2023-08-30T14:36:52;2.43;;;1.40;;
9436;SDS011;4757;59.334;18.034;2023-08-30T14:39:42;2.13;;;1.33;;
9436;SDS011;4757;59.334;18.034;2023-08-30T14:42:10;2.50;;;1.60;;
9436;SDS011;4757;59.334;18.034;2023-08-30T14:44:52;1.87;;;1.37;;
9436;SDS011;4757;59.334;18.034;2023-08-30T14:47:33;1.43;;;1.33;;
9436;SDS011;4757;59.334;18.034;2023-08-30T14:50:14;2.20;;;1.43;;
9436;SDS011;4757;59.334;18.034;2023-08-30T14:55:31;4.43;;;1.80;;
9436;SDS011;4757;59.334;18.034;2023-08-30T14:58:15;3.50;;;2.00;;
9436;SDS011;4757;59.334;18.034;2023-08-30T15:01:04;2.47;;;1.60;;
9436;SDS011;4757;59.334;18.034;2023-08-30T15:03:38;5.50;;;1.73;;
9436;SDS011;4757;59.334;18.034;2023-08-30T15:06:19;1.60;;;1.50;;
9436;SDS011;4757;59.334;18.034;2023-08-30T15:09:00;5.07;;;1.33;;
9436;SDS011;4757;59.334;18.034;2023-08-30T15:11:47;2.63;;;1.70;;
9436;SDS011;4757;59.334;18.034;2023-08-30T15:14:28;2.83;;;1.70;;
9436;SDS011;4757;59.334;18.034;2023-08-30T15:17:13;2.20;;;1.73;;
9436;SDS011;4757;59.334;18.034;2023-08-30T15:19:56;5.30;;;2.03;;
9436;SDS011;4757;59.334;18.034;2023-08-30T15:22:37;4.23;;;2.60;;
9436;SDS011;4757;59.334;18.034;2023-08-30T15:25:19;2.00;;;1.80;;
9436;SDS011;4757;59.334;18.034;2023-08-30T15:28:00;3.47;;;2.33;;
9436;SDS011;4757;59.334;18.034;2023-08-30T15:30:42;2.00;;;1.73;;
9436;SDS011;4757;59.334;18.034;2023-08-30T15:33:26;6.00;;;2.70;;
9436;SDS011;4757;59.334;18.034;2023-08-30T15:36:08;4.50;;;2.50;;
9436;SDS011;4757;59.334;18.034;2023-08-30T15:38:49;2.50;;;2.30;;